createdAt,value
2019-01-23T00:03:50.497Z,17.13
2019-01-23T00:08:55.398Z,15.60
2019-01-23T00:14:00.277Z,12.53
2019-01-23T00:19:05.217Z,15.37
2019-01-23T00:24:10.038Z,19.27
2019-01-23T00:29:15.166Z,16.93
2019-01-23T00:34:20.057Z,19.40
2019-01-23T00:39:24.855Z,13.47
2019-01-23T00:44:29.958Z,14.60
2019-01-23T00:49:34.880Z,12.93
2019-01-23T00:54:39.729Z,13.77
2019-01-23T00:59:44.774Z,16.27
2019-01-23T01:04:49.927Z,13.53
2019-01-23T01:09:54.730Z,12.27
2019-01-23T01:14:59.854Z,11.60
2019-01-23T01:20:06.683Z,17.27
2019-01-23T01:25:13.869Z,14.90
2019-01-23T01:30:21.027Z,13.77
2019-01-23T01:35:26.097Z,13.93
2019-01-23T01:40:31.277Z,10.30
2019-01-23T01:45:36.244Z,13.40
2019-01-23T01:50:42.065Z,10.07
2019-01-23T01:55:46.869Z,11.17
2019-01-23T02:00:51.776Z,13.17
2019-01-23T02:05:56.939Z,12.93
2019-01-23T02:11:01.765Z,11.90
2019-01-23T02:16:06.722Z,13.57
2019-01-23T02:21:12.023Z,13.97
2019-01-23T02:26:17.042Z,10.73
2019-01-23T02:31:21.880Z,14.87
2019-01-23T02:36:26.703Z,15.03
2019-01-23T02:41:31.602Z,11.63
2019-01-23T02:46:36.424Z,13.93
2019-01-23T02:51:41.585Z,13.90
2019-01-23T02:56:46.665Z,9.80
2019-01-23T03:01:51.750Z,11.53
2019-01-23T03:06:56.697Z,13.67
2019-01-23T03:12:02.038Z,14.37
2019-01-23T03:17:07.064Z,13.60
2019-01-23T03:22:11.918Z,11.53
2019-01-23T03:27:16.870Z,13.20
2019-01-23T03:32:22.035Z,15.20
2019-01-23T03:37:27.119Z,11.67
2019-01-23T03:42:32.378Z,11.07
2019-01-23T03:47:37.625Z,10.97
2019-01-23T03:52:42.625Z,10.37
2019-01-23T03:57:47.601Z,10.77
2019-01-23T04:02:53.544Z,7.80
2019-01-23T04:07:58.407Z,12.77
2019-01-23T04:13:03.183Z,14.43
2019-01-23T04:18:08.082Z,10.33
2019-01-23T04:23:12.907Z,13.57
2019-01-23T04:28:17.958Z,12.53
2019-01-23T04:33:22.722Z,12.03
2019-01-23T04:38:27.665Z,11.33
2019-01-23T04:43:32.879Z,10.93
2019-01-23T04:48:38.104Z,16.67
2019-01-23T04:53:45.014Z,13.10
2019-01-23T04:58:49.898Z,16.27
2019-01-23T05:03:55.411Z,12.07
2019-01-23T05:09:00.656Z,15.13
2019-01-23T05:14:07.237Z,12.47
2019-01-23T05:19:12.156Z,11.73
2019-01-23T05:24:17.050Z,24.37
2019-01-23T05:29:21.841Z,18.97
2019-01-23T05:34:26.663Z,17.97
2019-01-23T05:39:31.505Z,20.03
2019-01-23T05:44:36.361Z,21.47
2019-01-23T05:49:41.441Z,22.10
2019-01-23T05:54:46.538Z,17.60
2019-01-23T05:59:51.322Z,16.43
2019-01-23T06:04:56.521Z,16.47
2019-01-23T06:10:01.519Z,21.67
2019-01-23T06:15:07.112Z,19.77
2019-01-23T06:20:14.318Z,27.63
2019-01-23T06:25:19.569Z,32.27
2019-01-23T06:30:26.399Z,21.00
2019-01-23T06:35:31.182Z,22.80
2019-01-23T06:40:36.758Z,23.43
2019-01-23T06:45:41.952Z,26.77
2019-01-23T06:50:46.771Z,35.47
2019-01-23T06:55:51.518Z,18.13
2019-01-23T07:00:56.601Z,25.47
2019-01-23T07:06:01.733Z,27.47
2019-01-23T07:11:06.710Z,28.73
2019-01-23T07:16:11.521Z,24.47
2019-01-23T07:21:16.836Z,21.37
2019-01-23T07:26:22.138Z,19.20
2019-01-23T07:31:27.376Z,17.70
2019-01-23T07:36:32.347Z,19.97
2019-01-23T07:41:37.423Z,25.07
2019-01-23T07:46:43.010Z,27.37
2019-01-23T07:51:47.811Z,19.90
2019-01-23T07:56:52.917Z,18.40
2019-01-23T08:01:58.179Z,29.67
2019-01-23T08:07:03.146Z,22.03
2019-01-23T08:12:10.812Z,20.23
2019-01-23T08:17:15.001Z,19.67
2019-01-23T08:22:19.768Z,22.83
2019-01-23T08:27:24.930Z,17.60
2019-01-23T08:32:30.200Z,22.07
2019-01-23T08:37:35.271Z,24.80
2019-01-23T08:42:40.146Z,23.30
2019-01-23T08:47:45.418Z,25.87
2019-01-23T08:52:50.687Z,21.50
2019-01-23T08:57:57.177Z,19.30
2019-01-23T09:03:02.106Z,24.00
2019-01-23T09:08:09.270Z,30.70
2019-01-23T09:13:14.245Z,28.20
2019-01-23T09:18:19.084Z,26.10
2019-01-23T09:23:24.108Z,23.10
2019-01-23T09:28:30.020Z,15.63
2019-01-23T09:33:49.463Z,21.23
2019-01-23T09:39:20.062Z,20.10
2019-01-23T09:45:12.889Z,22.80
2019-01-23T09:50:57.396Z,18.80
2019-01-23T09:56:03.382Z,19.17
2019-01-23T10:01:08.553Z,13.43
2019-01-23T10:06:16.625Z,20.93
2019-01-23T10:11:21.374Z,29.57
2019-01-23T10:16:26.247Z,26.57
2019-01-23T10:21:31.177Z,21.47
2019-01-23T10:26:36.072Z,17.33
2019-01-23T10:31:41.009Z,20.73
2019-01-23T10:36:45.894Z,14.40
2019-01-23T10:41:50.855Z,38.00
2019-01-23T10:46:55.677Z,20.60
2019-01-23T10:52:00.459Z,27.67
2019-01-23T10:57:05.686Z,22.80
2019-01-23T11:02:10.670Z,26.47
2019-01-23T11:07:16.552Z,21.07
2019-01-23T11:12:25.828Z,30.07
2019-01-23T11:17:39.830Z,15.27
2019-01-23T11:22:48.240Z,14.97
2019-01-23T11:27:53.504Z,17.80
2019-01-23T11:33:00.525Z,25.60
2019-01-23T11:38:10.397Z,27.07
2019-01-23T11:43:15.349Z,21.03
2019-01-23T11:48:22.145Z,17.30
2019-01-23T11:53:27.360Z,17.47
2019-01-23T11:58:35.350Z,23.30
2019-01-23T12:03:41.254Z,28.33
2019-01-23T12:08:46.089Z,19.70
2019-01-23T12:13:51.407Z,28.67
2019-01-23T12:18:59.577Z,37.73
2019-01-23T12:24:04.583Z,24.57
2019-01-23T12:29:09.668Z,24.20
2019-01-23T12:34:14.647Z,19.63
2019-01-23T12:39:19.938Z,26.30
2019-01-23T12:45:12.199Z,31.13
2019-01-23T12:50:51.476Z,26.10
2019-01-23T12:56:14.599Z,18.73
2019-01-23T13:01:47.160Z,12.73
2019-01-23T13:07:01.148Z,12.90
2019-01-23T13:12:05.540Z,22.07
2019-01-23T13:17:18.629Z,16.27
2019-01-23T13:22:26.726Z,16.23
2019-01-23T13:27:57.303Z,15.47
2019-01-23T13:33:02.352Z,14.67
2019-01-23T13:38:15.059Z,17.43
2019-01-23T13:43:22.432Z,24.50
2019-01-23T13:48:30.839Z,16.13
2019-01-23T13:53:35.834Z,16.77
2019-01-23T13:58:42.204Z,19.13
2019-01-23T14:03:47.249Z,16.77
2019-01-23T14:08:52.053Z,16.90
2019-01-23T14:13:57.064Z,19.40
2019-01-23T14:19:03.736Z,19.87
2019-01-23T14:24:11.121Z,17.77
2019-01-23T14:29:16.047Z,13.97
2019-01-23T14:34:20.873Z,14.43
2019-01-23T14:39:25.997Z,12.67
2019-01-23T14:44:31.250Z,11.07
2019-01-23T14:49:36.040Z,9.97
2019-01-23T14:54:40.815Z,10.40
2019-01-23T14:59:46.058Z,10.70
2019-01-23T15:04:51.318Z,11.47
2019-01-23T15:09:59.333Z,12.87
2019-01-23T15:15:04.870Z,15.30
2019-01-23T15:20:25.559Z,9.47
2019-01-23T15:25:33.644Z,10.80
2019-01-23T15:30:44.611Z,10.87
2019-01-23T15:35:52.235Z,10.30
2019-01-23T15:40:56.357Z,8.97
2019-01-23T15:46:01.319Z,11.27
2019-01-23T15:51:07.154Z,10.27
2019-01-23T15:56:12.032Z,9.03
2019-01-23T16:01:17.234Z,9.83
2019-01-23T16:06:25.833Z,11.07
2019-01-23T16:11:31.133Z,10.10
2019-01-23T16:16:36.547Z,11.90
2019-01-23T16:21:45.563Z,12.93
2019-01-23T16:26:50.582Z,11.40
2019-01-23T16:31:55.633Z,11.27
2019-01-23T16:37:00.859Z,12.57
2019-01-23T16:42:06.176Z,11.27
2019-01-23T16:47:11.276Z,8.90
2019-01-23T16:52:16.667Z,11.53
2019-01-23T16:57:22.889Z,9.00
2019-01-23T17:02:28.110Z,10.53
2019-01-23T17:07:33.518Z,10.83
2019-01-23T17:12:38.822Z,10.17
2019-01-23T17:17:44.174Z,12.53
2019-01-23T17:22:54.723Z,12.00
2019-01-23T17:28:00.091Z,11.57
2019-01-23T17:33:05.467Z,8.50
2019-01-23T17:38:10.757Z,12.17
2019-01-23T17:43:15.889Z,10.20
2019-01-23T17:48:21.156Z,10.23
2019-01-23T17:53:26.153Z,9.57
2019-01-23T17:58:31.173Z,9.93
2019-01-23T18:03:36.230Z,12.83
2019-01-23T18:08:41.633Z,11.57
2019-01-23T18:13:46.552Z,10.77
2019-01-23T18:18:54.523Z,11.33
2019-01-23T18:23:59.565Z,11.57
2019-01-23T18:29:30.458Z,12.47
2019-01-23T18:35:15.214Z,11.63
2019-01-23T18:40:45.081Z,10.30
2019-01-23T18:46:24.173Z,10.53
2019-01-23T18:51:52.054Z,11.27
2019-01-23T18:56:56.909Z,11.23
2019-01-23T19:02:02.168Z,13.93
2019-01-23T19:07:06.978Z,15.27
2019-01-23T19:12:12.143Z,11.40
2019-01-23T19:17:16.988Z,14.60
2019-01-23T19:22:22.089Z,15.07
2019-01-23T19:27:28.188Z,13.58
2019-01-23T19:33:48.323Z,10.50
2019-01-23T19:38:55.815Z,12.80
2019-01-23T19:44:04.168Z,13.37
2019-01-23T19:49:10.236Z,14.30
2019-01-23T19:54:14.979Z,9.73
2019-01-23T21:30:49.279Z,19.80
2019-01-23T21:59:15.317Z,10.80
